sensor_id;sensor_type;location;lat;lon;timestamp;pressure;altitude;pressure_sealevel;temperature;humidity
74573;BME280;73017;50.810;4.428;2023-11-21T00:02:12;100517.09;;;20.70;56.12
74573;BME280;73017;50.810;4.428;2023-11-21T00:04:38;100510.97;;;20.66;56.42
74573;BME280;73017;50.810;4.428;2023-11-21T00:07:03;100520.13;;;20.68;55.70
74573;BME280;73017;50.810;4.428;2023-11-21T00:09:29;100542.69;;;20.81;55.81
74573;BME280;73017;50.810;4.428;2023-11-21T00:11:54;100522.72;;;20.65;55.82
74573;BME280;73017;50.810;4.428;2023-11-21T00:14:20;100550.66;;;20.81;56.17
74573;BME280;73017;50.810;4.428;2023-11-21T00:16:45;100557.91;;;20.85;56.11
74573;BME280;73017;50.810;4.428;2023-11-21T00:19:11;100547.59;;;20.79;55.80
74573;BME280;73017;50.810;4.428;2023-11-21T00:21:37;100533.84;;;20.74;55.93
74573;BME280;73017;50.810;4.428;2023-11-21T00:24:03;100552.13;;;20.79;56.42
74573;BME280;73017;50.810;4.428;2023-11-21T00:26:28;100541.16;;;20.80;55.84
74573;BME280;73017;50.810;4.428;2023-11-21T00:28:56;100532.19;;;20.66;56.11
74573;BME280;73017;50.810;4.428;2023-11-21T00:31:21;100548.31;;;20.76;56.28
74573;BME280;73017;50.810;4.428;2023-11-21T00:33:47;100520.41;;;20.63;56.01
74573;BME280;73017;50.810;4.428;2023-11-21T00:36:13;100555.19;;;20.81;55.76
74573;BME280;73017;50.810;4.428;2023-11-21T00:38:38;100560.09;;;20.79;56.03
74573;BME280;73017;50.810;4.428;2023-11-21T00:41:06;100555.56;;;20.79;56.42
74573;BME280;73017;50.810;4.428;2023-11-21T00:43:31;100534.03;;;20.61;56.22
74573;BME280;73017;50.810;4.428;2023-11-21T00:45:59;100557.81;;;20.77;56.04
74573;BME280;73017;50.810;4.428;2023-11-21T00:48:24;100534.81;;;20.62;56.02
74573;BME280;73017;50.810;4.428;2023-11-21T00:50:50;100562.34;;;20.77;55.98
74573;BME280;73017;50.810;4.428;2023-11-21T00:53:15;100537.50;;;20.66;56.32
74573;BME280;73017;50.810;4.428;2023-11-21T00:55:42;100563.94;;;20.81;56.10
74573;BME280;73017;50.810;4.428;2023-11-21T00:58:07;100531.75;;;20.60;55.77
74573;BME280;73017;50.810;4.428;2023-11-21T01:00:33;100567.66;;;20.77;56.13
74573;BME280;73017;50.810;4.428;2023-11-21T01:02:59;100565.78;;;20.77;55.72
74573;BME280;73017;50.810;4.428;2023-11-21T01:05:25;100567.66;;;20.77;56.07
74573;BME280;73017;50.810;4.428;2023-11-21T01:07:50;100561.88;;;20.71;55.78
74573;BME280;73017;50.810;4.428;2023-11-21T01:10:16;100568.00;;;20.75;55.90
74573;BME280;73017;50.810;4.428;2023-11-21T01:12:43;100564.59;;;20.75;55.80
74573;BME280;73017;50.810;4.428;2023-11-21T01:15:08;100557.94;;;20.61;56.34
74573;BME280;73017;50.810;4.428;2023-11-21T01:17:34;100568.34;;;20.70;55.52
74573;BME280;73017;50.810;4.428;2023-11-21T01:20:02;100583.53;;;20.73;55.94
74573;BME280;73017;50.810;4.428;2023-11-21T01:22:28;100557.44;;;20.56;55.67
74573;BME280;73017;50.810;4.428;2023-11-21T01:24:54;100552.56;;;20.58;55.81
74573;BME280;73017;50.810;4.428;2023-11-21T01:27:20;100562.06;;;20.59;56.40
74573;BME280;73017;50.810;4.428;2023-11-21T01:29:46;100573.19;;;20.65;56.10
74573;BME280;73017;50.810;4.428;2023-11-21T01:32:11;100591.84;;;20.72;55.71
74573;BME280;73017;50.810;4.428;2023-11-21T01:34:37;100560.47;;;20.54;56.31
74573;BME280;73017;50.810;4.428;2023-11-21T01:37:02;100590.75;;;20.73;56.04
74573;BME280;73017;50.810;4.428;2023-11-21T01:39:30;100562.84;;;20.59;56.37
74573;BME280;73017;50.810;4.428;2023-11-21T01:41:55;100574.66;;;20.62;56.17
74573;BME280;73017;50.810;4.428;2023-11-21T01:44:24;100589.63;;;20.74;56.07
74573;BME280;73017;50.810;4.428;2023-11-21T01:46:50;100594.94;;;20.74;55.83
74573;BME280;73017;50.810;4.428;2023-11-21T01:49:16;100590.00;;;20.72;56.12
74573;BME280;73017;50.810;4.428;2023-11-21T01:51:47;100581.78;;;20.58;55.70
74573;BME280;73017;50.810;4.428;2023-11-21T01:54:18;100594.06;;;20.66;56.36
74573;BME280;73017;50.810;4.428;2023-11-21T01:56:46;100602.03;;;20.66;56.25
74573;BME280;73017;50.810;4.428;2023-11-21T01:59:18;100606.28;;;20.71;55.92
74573;BME280;73017;50.810;4.428;2023-11-21T02:01:45;100608.19;;;20.70;56.13
74573;BME280;73017;50.810;4.428;2023-11-21T02:04:12;100610.09;;;20.73;56.00
74573;BME280;73017;50.810;4.428;2023-11-21T02:06:38;100592.84;;;20.60;55.77
74573;BME280;73017;50.810;4.428;2023-11-21T02:09:04;100608.59;;;20.72;55.95
74573;BME280;73017;50.810;4.428;2023-11-21T02:11:30;100591.28;;;20.59;56.03
74573;BME280;73017;50.810;4.428;2023-11-21T02:13:59;100600.81;;;20.60;56.17
74573;BME280;73017;50.810;4.428;2023-11-21T02:16:24;100622.63;;;20.73;56.17
74573;BME280;73017;50.810;4.428;2023-11-21T02:18:51;100602.31;;;20.61;56.14
74573;BME280;73017;50.810;4.428;2023-11-21T02:21:17;100598.06;;;20.56;56.33
74573;BME280;73017;50.810;4.428;2023-11-21T02:23:44;100596.50;;;20.55;55.78
74573;BME280;73017;50.810;4.428;2023-11-21T02:26:12;100609.44;;;20.57;56.29
74573;BME280;73017;50.810;4.428;2023-11-21T02:28:37;100616.91;;;20.71;56.02
74573;BME280;73017;50.810;4.428;2023-11-21T02:31:04;100625.28;;;20.73;56.30
74573;BME280;73017;50.810;4.428;2023-11-21T02:33:31;100610.28;;;20.61;56.04
74573;BME280;73017;50.810;4.428;2023-11-21T02:36:03;100593.09;;;20.55;56.29
74573;BME280;73017;50.810;4.428;2023-11-21T02:38:28;100617.66;;;20.71;56.28
74573;BME280;73017;50.810;4.428;2023-11-21T02:40:54;100601.16;;;20.58;56.42
74573;BME280;73017;50.810;4.428;2023-11-21T02:43:19;100590.78;;;20.53;55.85
74573;BME280;73017;50.810;4.428;2023-11-21T02:45:45;100593.50;;;20.57;55.98
74573;BME280;73017;50.810;4.428;2023-11-21T02:48:10;100619.22;;;20.72;56.03
74573;BME280;73017;50.810;4.428;2023-11-21T02:50:36;100617.66;;;20.71;55.94
74573;BME280;73017;50.810;4.428;2023-11-21T02:53:03;100609.28;;;20.69;56.27
74573;BME280;73017;50.810;4.428;2023-11-21T02:55:31;100594.16;;;20.50;56.12
74573;BME280;73017;50.810;4.428;2023-11-21T02:58:00;100617.97;;;20.66;55.93
74573;BME280;73017;50.810;4.428;2023-11-21T03:00:26;100608.88;;;20.67;55.80
74573;BME280;73017;50.810;4.428;2023-11-21T03:02:51;100618.72;;;20.67;56.15
74573;BME280;73017;50.810;4.428;2023-11-21T03:05:17;100601.81;;;20.55;55.88
74573;BME280;73017;50.810;4.428;2023-11-21T03:07:42;100628.22;;;20.68;56.24
74573;BME280;73017;50.810;4.428;2023-11-21T03:10:09;100623.22;;;20.63;55.96
74573;BME280;73017;50.810;4.428;2023-11-21T03:12:36;100604.06;;;20.53;55.83
74573;BME280;73017;50.810;4.428;2023-11-21T03:15:02;100601.34;;;20.50;56.02
74573;BME280;73017;50.810;4.428;2023-11-21T03:17:28;100610.50;;;20.52;56.24
74573;BME280;73017;50.810;4.428;2023-11-21T03:19:54;100600.66;;;20.53;56.05
74573;BME280;73017;50.810;4.428;2023-11-21T03:22:20;100625.13;;;20.62;56.19
74573;BME280;73017;50.810;4.428;2023-11-21T03:24:45;100617.00;;;20.55;55.55
74573;BME280;73017;50.810;4.428;2023-11-21T03:27:11;100596.81;;;20.50;56.08
74573;BME280;73017;50.810;4.428;2023-11-21T03:29:37;100629.28;;;20.63;56.02
74573;BME280;73017;50.810;4.428;2023-11-21T03:32:03;100632.00;;;20.67;55.82
74573;BME280;73017;50.810;4.428;2023-11-21T03:34:28;100646.81;;;20.68;55.39
74573;BME280;73017;50.810;4.428;2023-11-21T03:36:54;100631.94;;;20.63;55.79
74573;BME280;73017;50.810;4.428;2023-11-21T03:39:20;100629.78;;;20.49;55.44
74573;BME280;73017;50.810;4.428;2023-11-21T03:41:46;100622.94;;;20.48;55.93
74573;BME280;73017;50.810;4.428;2023-11-21T03:44:12;100617.28;;;20.50;56.06
74573;BME280;73017;50.810;4.428;2023-11-21T03:46:38;100628.69;;;20.50;55.62
74573;BME280;73017;50.810;4.428;2023-11-21T03:49:03;100645.44;;;20.54;55.51
74573;BME280;73017;50.810;4.428;2023-11-21T03:51:29;100622.56;;;20.50;55.87
74573;BME280;73017;50.810;4.428;2023-11-21T03:53:54;100641.66;;;20.55;56.00
74573;BME280;73017;50.810;4.428;2023-11-21T03:56:20;100657.03;;;20.66;55.81
74573;BME280;73017;50.810;4.428;2023-11-21T03:58:48;100657.41;;;20.64;56.03
74573;BME280;73017;50.810;4.428;2023-11-21T04:01:24;100662.31;;;20.66;55.90
74573;BME280;73017;50.810;4.428;2023-11-21T04:03:50;100659.63;;;20.62;55.98
74573;BME280;73017;50.810;4.428;2023-11-21T04:06:16;100671.44;;;20.65;56.04
74573;BME280;73017;50.810;4.428;2023-11-21T04:08:43;100667.59;;;20.62;55.59
74573;BME280;73017;50.810;4.428;2023-11-21T04:11:10;100668.38;;;20.63;55.23
74573;BME280;73017;50.810;4.428;2023-11-21T04:13:38;100663.22;;;20.54;55.21
74573;BME280;73017;50.810;4.428;2023-11-21T04:16:05;100681.72;;;20.66;55.78
74573;BME280;73017;50.810;4.428;2023-11-21T04:18:31;100664.38;;;20.53;55.91
74573;BME280;73017;50.810;4.428;2023-11-21T04:20:56;100655.50;;;20.45;55.85
74573;BME280;73017;50.810;4.428;2023-11-21T04:23:22;100657.06;;;20.46;55.56
74573;BME280;73017;50.810;4.428;2023-11-21T04:25:47;100658.56;;;20.47;55.52
74573;BME280;73017;50.810;4.428;2023-11-21T04:28:13;100663.19;;;20.50;55.75
74573;BME280;73017;50.810;4.428;2023-11-21T04:30:38;100692.34;;;20.66;55.91
74573;BME280;73017;50.810;4.428;2023-11-21T04:33:04;100689.19;;;20.60;55.49
74573;BME280;73017;50.810;4.428;2023-11-21T04:35:30;100695.75;;;20.67;55.43
74573;BME280;73017;50.810;4.428;2023-11-21T04:37:55;100667.69;;;20.46;55.32
74573;BME280;73017;50.810;4.428;2023-11-21T04:40:22;100668.78;;;20.45;56.03
74573;BME280;73017;50.810;4.428;2023-11-21T04:42:48;100671.00;;;20.43;55.36
74573;BME280;73017;50.810;4.428;2023-11-21T04:45:13;100692.97;;;20.59;55.73
74573;BME280;73017;50.810;4.428;2023-11-21T04:47:39;100695.09;;;20.54;55.79
74573;BME280;73017;50.810;4.428;2023-11-21T04:50:05;100693.84;;;20.48;55.19
74573;BME280;73017;50.810;4.428;2023-11-21T04:52:31;100716.50;;;20.61;55.17
74573;BME280;73017;50.810;4.428;2023-11-21T04:54:57;100729.84;;;20.65;55.43
74573;BME280;73017;50.810;4.428;2023-11-21T04:57:24;100686.53;;;20.41;55.91
74573;BME280;73017;50.810;4.428;2023-11-21T04:59:49;100700.38;;;20.50;55.35
74573;BME280;73017;50.810;4.428;2023-11-21T05:02:16;100693.44;;;20.46;55.87
74573;BME280;73017;50.810;4.428;2023-11-21T05:04:41;100691.56;;;20.46;55.26
74573;BME280;73017;50.810;4.428;2023-11-21T05:07:08;100711.97;;;20.61;55.70
74573;BME280;73017;50.810;4.428;2023-11-21T05:09:34;100694.22;;;20.46;55.73
74573;BME280;73017;50.810;4.428;2023-11-21T05:12:01;100694.16;;;20.42;55.63
74573;BME280;73017;50.810;4.428;2023-11-21T05:14:26;100725.25;;;20.61;55.24
74573;BME280;73017;50.810;4.428;2023-11-21T05:16:52;100736.66;;;20.62;55.87
74573;BME280;73017;50.810;4.428;2023-11-21T05:19:17;100732.03;;;20.59;55.88
74573;BME280;73017;50.810;4.428;2023-11-21T05:21:43;100727.53;;;20.63;55.96
74573;BME280;73017;50.810;4.428;2023-11-21T05:24:08;100747.69;;;20.64;55.12
74573;BME280;73017;50.810;4.428;2023-11-21T05:26:35;100737.75;;;20.61;55.74
74573;BME280;73017;50.810;4.428;2023-11-21T05:29:00;100733.06;;;20.54;55.45
74573;BME280;73017;50.810;4.428;2023-11-21T05:31:26;100747.63;;;20.60;55.59
74573;BME280;73017;50.810;4.428;2023-11-21T05:33:52;100760.19;;;20.64;56.04
74573;BME280;73017;50.810;4.428;2023-11-21T05:36:18;100732.97;;;20.51;55.24
74573;BME280;73017;50.810;4.428;2023-11-21T05:38:44;100752.50;;;20.58;55.70
74573;BME280;73017;50.810;4.428;2023-11-21T05:41:09;100734.47;;;20.48;55.26
74573;BME280;73017;50.810;4.428;2023-11-21T05:43:39;100746.25;;;20.51;56.00
74573;BME280;73017;50.810;4.428;2023-11-21T05:46:05;100766.63;;;20.63;55.23
74573;BME280;73017;50.810;4.428;2023-11-21T05:48:32;100768.50;;;20.62;55.89
74573;BME280;73017;50.810;4.428;2023-11-21T05:50:58;100776.47;;;20.62;55.63
74573;BME280;73017;50.810;4.428;2023-11-21T05:53:24;100756.47;;;20.49;55.79
74573;BME280;73017;50.810;4.428;2023-11-21T05:55:49;100780.59;;;20.59;55.24
74573;BME280;73017;50.810;4.428;2023-11-21T05:58:15;100767.09;;;20.49;55.34
74573;BME280;73017;50.810;4.428;2023-11-21T06:00:40;100760.19;;;20.44;55.92
74573;BME280;73017;50.810;4.428;2023-11-21T06:03:06;100782.47;;;20.59;55.62
74573;BME280;73017;50.810;4.428;2023-11-21T06:05:33;100781.38;;;20.60;55.82
74573;BME280;73017;50.810;4.428;2023-11-21T06:07:59;100767.84;;;20.49;55.73
74573;BME280;73017;50.810;4.428;2023-11-21T06:10:26;100790.44;;;20.59;55.15
74573;BME280;73017;50.810;4.428;2023-11-21T06:12:53;100768.16;;;20.44;55.71
74573;BME280;73017;50.810;4.428;2023-11-21T06:15:19;100786.59;;;20.56;55.89
74573;BME280;73017;50.810;4.428;2023-11-21T06:17:46;100767.34;;;20.44;55.77
74573;BME280;73017;50.810;4.428;2023-11-21T06:20:15;100796.53;;;20.59;55.64
74573;BME280;73017;50.810;4.428;2023-11-21T06:22:45;100787.16;;;20.46;55.11
74573;BME280;73017;50.810;4.428;2023-11-21T06:25:12;100780.28;;;20.45;55.47
74573;BME280;73017;50.810;4.428;2023-11-21T06:27:40;100810.47;;;20.56;55.09
74573;BME280;73017;50.810;4.428;2023-11-21T06:30:06;100803.28;;;20.57;55.11
74573;BME280;73017;50.810;4.428;2023-11-21T06:32:32;100810.13;;;20.58;55.35
74573;BME280;73017;50.810;4.428;2023-11-21T06:34:58;100782.88;;;20.41;55.75
74573;BME280;73017;50.810;4.428;2023-11-21T06:37:28;100801.53;;;20.45;55.19
74573;BME280;73017;50.810;4.428;2023-11-21T06:39:54;100801.53;;;20.45;55.16
74573;BME280;73017;50.810;4.428;2023-11-21T06:42:20;100822.63;;;20.57;55.15
74573;BME280;73017;50.810;4.428;2023-11-21T06:44:46;100826.53;;;20.60;55.86
74573;BME280;73017;50.810;4.428;2023-11-21T06:47:12;100818.38;;;20.53;55.61
74573;BME280;73017;50.810;4.428;2023-11-21T06:49:38;100840.56;;;20.60;55.54
74573;BME280;73017;50.810;4.428;2023-11-21T06:52:04;100837.03;;;20.56;55.76
74573;BME280;73017;50.810;4.428;2023-11-21T06:54:31;100831.56;;;20.49;55.23
74573;BME280;73017;50.810;4.428;2023-11-21T06:56:58;100834.31;;;20.53;55.76
74573;BME280;73017;50.810;4.428;2023-11-21T06:59:23;100844.66;;;20.58;55.79
74573;BME280;73017;50.810;4.428;2023-11-21T07:01:49;100846.53;;;20.57;55.43
74573;BME280;73017;50.810;4.428;2023-11-21T07:04:14;100847.31;;;20.58;55.67
74573;BME280;73017;50.810;4.428;2023-11-21T07:06:40;100858.28;;;20.56;55.08
74573;BME280;73017;50.810;4.428;2023-11-21T07:09:06;100837.09;;;20.40;55.66
74573;BME280;73017;50.810;4.428;2023-11-21T07:11:34;100851.22;;;20.45;55.50
74573;BME280;73017;50.810;4.428;2023-11-21T07:14:00;100874.97;;;20.57;55.34
74573;BME280;73017;50.810;4.428;2023-11-21T07:16:30;100864.81;;;20.43;55.71
74573;BME280;73017;50.810;4.428;2023-11-21T07:18:56;100869.44;;;20.46;55.76
74573;BME280;73017;50.810;4.428;2023-11-21T07:21:21;100882.19;;;20.56;55.19
74573;BME280;73017;50.810;4.428;2023-11-21T07:23:47;100862.16;;;20.43;55.12
74573;BME280;73017;50.810;4.428;2023-11-21T07:26:12;100898.97;;;20.60;55.05
74573;BME280;73017;50.810;4.428;2023-11-21T07:28:38;100897.31;;;20.56;55.56
74573;BME280;73017;50.810;4.428;2023-11-21T07:31:03;100875.78;;;20.41;55.12
74573;BME280;73017;50.810;4.428;2023-11-21T07:33:29;100892.94;;;20.44;55.20
74573;BME280;73017;50.810;4.428;2023-11-21T07:35:54;100904.19;;;20.57;55.72
74573;BME280;73017;50.810;4.428;2023-11-21T07:38:20;100912.91;;;20.57;55.51
74573;BME280;73017;50.810;4.428;2023-11-21T07:40:45;100918.69;;;20.59;55.19
74573;BME280;73017;50.810;4.428;2023-11-21T07:43:10;100911.66;;;20.51;55.75
74573;BME280;73017;50.810;4.428;2023-11-21T07:45:36;100924.34;;;20.58;55.63
74573;BME280;73017;50.810;4.428;2023-11-21T07:48:02;100919.28;;;20.53;55.12
74573;BME280;73017;50.810;4.428;2023-11-21T07:50:29;100905.78;;;20.42;55.53
74573;BME280;73017;50.810;4.428;2023-11-21T07:52:54;100928.84;;;20.57;55.17
74573;BME280;73017;50.810;4.428;2023-11-21T07:55:20;100900.81;;;20.40;55.24
74573;BME280;73017;50.810;4.428;2023-11-21T07:57:46;100906.63;;;20.46;55.66
74573;BME280;73017;50.810;4.428;2023-11-21T08:00:12;100920.13;;;20.57;55.39
74573;BME280;73017;50.810;4.428;2023-11-21T08:02:39;100931.50;;;20.57;55.35
74573;BME280;73017;50.810;4.428;2023-11-21T08:05:07;100916.81;;;20.44;55.35
74573;BME280;73017;50.810;4.428;2023-11-21T08:07:33;100945.66;;;20.61;55.07
74573;BME280;73017;50.810;4.428;2023-11-21T08:09:59;100932.81;;;20.48;54.95
74573;BME280;73017;50.810;4.428;2023-11-21T08:12:24;100938.63;;;20.53;55.09
74573;BME280;73017;50.810;4.428;2023-11-21T08:14:51;100956.19;;;20.58;55.07
74573;BME280;73017;50.810;4.428;2023-11-21T08:17:16;100938.13;;;20.48;55.52
74573;BME280;73017;50.810;4.428;2023-11-21T08:19:42;100961.97;;;20.60;55.40
74573;BME280;73017;50.810;4.428;2023-11-21T08:22:07;100945.59;;;20.42;55.40
74573;BME280;73017;50.810;4.428;2023-11-21T08:24:33;100961.50;;;20.58;55.38
74573;BME280;73017;50.810;4.428;2023-11-21T08:26:58;100955.25;;;20.50;55.58
74573;BME280;73017;50.810;4.428;2023-11-21T08:29:24;100947.13;;;20.43;55.40
74573;BME280;73017;50.810;4.428;2023-11-21T08:31:49;100975.47;;;20.55;55.36
74573;BME280;73017;50.810;4.428;2023-11-21T08:34:15;100977.78;;;20.56;54.98
74573;BME280;73017;50.810;4.428;2023-11-21T08:36:44;100956.97;;;20.42;55.09
74573;BME280;73017;50.810;4.428;2023-11-21T08:39:10;100959.63;;;20.42;55.57
74573;BME280;73017;50.810;4.428;2023-11-21T08:41:36;100970.91;;;20.55;55.38
74573;BME280;73017;50.810;4.428;2023-11-21T08:44:02;100973.56;;;20.55;55.46
74573;BME280;73017;50.810;4.428;2023-11-21T08:46:32;100958.94;;;20.46;55.65
74573;BME280;73017;50.810;4.428;2023-11-21T08:49:00;100986.63;;;20.60;55.26
74573;BME280;73017;50.810;4.428;2023-11-21T08:51:26;100974.78;;;20.58;55.19
74573;BME280;73017;50.810;4.428;2023-11-21T08:53:52;100985.75;;;20.56;55.43
74573;BME280;73017;50.810;4.428;2023-11-21T08:56:18;100984.63;;;20.57;55.44
74573;BME280;73017;50.810;4.428;2023-11-21T08:58:45;100990.72;;;20.58;55.79
74573;BME280;73017;50.810;4.428;2023-11-21T09:01:12;100969.91;;;20.44;55.39
74573;BME280;73017;50.810;4.428;2023-11-21T09:03:38;100996.47;;;20.60;55.44
74573;BME280;73017;50.810;4.428;2023-11-21T09:06:03;100963.06;;;20.43;55.46
74573;BME280;73017;50.810;4.428;2023-11-21T09:08:30;100969.50;;;20.42;55.69
74573;BME280;73017;50.810;4.428;2023-11-21T09:10:56;101003.66;;;20.59;55.76
74573;BME280;73017;50.810;4.428;2023-11-21T09:13:22;100986.34;;;20.50;55.18
74573;BME280;73017;50.810;4.428;2023-11-21T09:15:49;100999.47;;;20.58;55.61
74573;BME280;73017;50.810;4.428;2023-11-21T09:18:15;100996.19;;;20.49;55.23
74573;BME280;73017;50.810;4.428;2023-11-21T09:20:41;101008.09;;;20.55;55.81
74573;BME280;73017;50.810;4.428;2023-11-21T09:23:09;100998.75;;;20.46;55.24
74573;BME280;73017;50.810;4.428;2023-11-21T09:25:35;101014.97;;;20.56;55.47
74573;BME280;73017;50.810;4.428;2023-11-21T09:28:01;100992.97;;;20.40;56.05
74573;BME280;73017;50.810;4.428;2023-11-21T09:30:26;100995.63;;;20.40;55.86
74573;BME280;73017;50.810;4.428;2023-11-21T09:32:52;101000.56;;;20.41;55.71
74573;BME280;73017;50.810;4.428;2023-11-21T09:35:18;101035.53;;;20.59;55.38
74573;BME280;73017;50.810;4.428;2023-11-21T09:37:45;101019.31;;;20.49;55.99
74573;BME280;73017;50.810;4.428;2023-11-21T09:40:12;101030.09;;;20.56;56.39
74573;BME280;73017;50.810;4.428;2023-11-21T09:42:48;101019.25;;;20.45;55.58
74573;BME280;73017;50.810;4.428;2023-11-21T09:45:36;101047.72;;;20.60;55.69
74573;BME280;73017;50.810;4.428;2023-11-21T09:48:05;101015.31;;;20.39;55.59
74573;BME280;73017;50.810;4.428;2023-11-21T09:50:32;101037.31;;;20.55;55.71
74573;BME280;73017;50.810;4.428;2023-11-21T09:55:45;101054.91;;;20.60;55.96
74573;BME280;73017;50.810;4.428;2023-11-21T09:58:11;101046.81;;;20.56;55.52
74573;BME280;73017;50.810;4.428;2023-11-21T10:00:40;101030.56;;;20.42;55.78
74573;BME280;73017;50.810;4.428;2023-11-21T10:03:06;101041.25;;;20.46;55.50
74573;BME280;73017;50.810;4.428;2023-11-21T10:05:32;101051.88;;;20.46;55.41
74573;BME280;73017;50.810;4.428;2023-11-21T10:07:59;101079.16;;;20.58;55.92
74573;BME280;73017;50.810;4.428;2023-11-21T10:10:27;101056.69;;;20.40;55.87
74573;BME280;73017;50.810;4.428;2023-11-21T10:12:57;101086.31;;;20.58;55.96
74573;BME280;73017;50.810;4.428;2023-11-21T10:15:24;101057.78;;;20.39;55.69
74573;BME280;73017;50.810;4.428;2023-11-21T10:17:53;101080.31;;;20.45;55.43
74573;BME280;73017;50.810;4.428;2023-11-21T10:20:20;101081.00;;;20.42;55.87
74573;BME280;73017;50.810;4.428;2023-11-21T10:22:45;101106.47;;;20.59;55.73
74573;BME280;73017;50.810;4.428;2023-11-21T10:25:12;101082.19;;;20.45;55.60
74573;BME280;73017;50.810;4.428;2023-11-21T10:27:40;101099.94;;;20.56;55.44
74573;BME280;73017;50.810;4.428;2023-11-21T10:30:07;101092.81;;;20.45;55.68
74573;BME280;73017;50.810;4.428;2023-11-21T10:32:38;101089.41;;;20.44;55.57
74573;BME280;73017;50.810;4.428;2023-11-21T10:35:06;101084.31;;;20.39;55.08
74573;BME280;73017;50.810;4.428;2023-11-21T10:37:39;101087.84;;;20.43;55.29
74573;BME280;73017;50.810;4.428;2023-11-21T10:40:10;101115.44;;;20.54;55.92
74573;BME280;73017;50.810;4.428;2023-11-21T10:42:39;101088.88;;;20.38;55.37
74573;BME280;73017;50.810;4.428;2023-11-21T10:45:06;101087.75;;;20.39;55.83
74573;BME280;73017;50.810;4.428;2023-11-21T10:47:42;101096.50;;;20.40;55.55
74573;BME280;73017;50.810;4.428;2023-11-21T10:50:09;101101.53;;;20.45;55.68
74573;BME280;73017;50.810;4.428;2023-11-21T10:52:45;101099.22;;;20.44;55.59
74573;BME280;73017;50.810;4.428;2023-11-21T10:55:19;101117.09;;;20.59;55.19
74573;BME280;73017;50.810;4.428;2023-11-21T10:57:53;101094.44;;;20.49;55.80
74573;BME280;73017;50.810;4.428;2023-11-21T11:00:19;101097.19;;;20.53;55.70
74573;BME280;73017;50.810;4.428;2023-11-21T11:02:51;101075.69;;;20.42;55.38
74573;BME280;73017;50.810;4.428;2023-11-21T11:05:20;101100.41;;;20.58;55.55
74573;BME280;73017;50.810;4.428;2023-11-21T11:07:50;101098.50;;;20.59;55.46
74573;BME280;73017;50.810;4.428;2023-11-21T11:10:23;101084.09;;;20.44;55.66
74573;BME280;73017;50.810;4.428;2023-11-21T11:12:52;101026.84;;;19.99;55.76
74573;BME280;73017;50.810;4.428;2023-11-21T11:15:19;101101.78;;;20.56;55.82
74573;BME280;73017;50.810;4.428;2023-11-21T11:17:46;101116.00;;;20.60;55.01
74573;BME280;73017;50.810;4.428;2023-11-21T11:20:13;101120.84;;;20.58;55.42
74573;BME280;73017;50.810;4.428;2023-11-21T11:28:04;101127.16;;;20.53;55.35
74573;BME280;73017;50.810;4.428;2023-11-21T11:35:53;101128.03;;;20.57;55.44
74573;BME280;73017;50.810;4.428;2023-11-21T11:38:22;101117.56;;;20.49;55.81
74573;BME280;73017;50.810;4.428;2023-11-21T11:40:53;101132.56;;;20.57;55.39
74573;BME280;73017;50.810;4.428;2023-11-21T11:43:26;101111.06;;;20.46;55.63
74573;BME280;73017;50.810;4.428;2023-11-21T11:45:55;101121.94;;;20.57;55.26
74573;BME280;73017;50.810;4.428;2023-11-21T11:48:22;101128.72;;;20.54;55.09
74573;BME280;73017;50.810;4.428;2023-11-21T11:51:09;101129.28;;;20.60;54.97
74573;BME280;73017;50.810;4.428;2023-11-21T11:53:44;101130.69;;;20.57;55.13
74573;BME280;73017;50.810;4.428;2023-11-21T11:56:26;101130.38;;;20.59;55.25
74573;BME280;73017;50.810;4.428;2023-11-21T11:58:58;101108.31;;;20.42;55.26
74573;BME280;73017;50.810;4.428;2023-11-21T12:01:25;101136.31;;;20.56;55.81
74573;BME280;73017;50.810;4.428;2023-11-21T12:06:45;101115.16;;;20.44;55.21
74573;BME280;73017;50.810;4.428;2023-11-21T12:09:37;101143.97;;;20.57;55.46
74573;BME280;73017;50.810;4.428;2023-11-21T12:12:03;101129.28;;;20.48;55.27
74573;BME280;73017;50.810;4.428;2023-11-21T12:14:31;101132.31;;;20.46;55.23
74573;BME280;73017;50.810;4.428;2023-11-21T12:16:56;101140.88;;;20.55;55.32
74573;BME280;73017;50.810;4.428;2023-11-21T12:19:22;101142.44;;;20.56;55.66
74573;BME280;73017;50.810;4.428;2023-11-21T12:21:48;101121.25;;;20.44;55.73
74573;BME280;73017;50.810;4.428;2023-11-21T12:24:14;101129.22;;;20.44;55.24
74573;BME280;73017;50.810;4.428;2023-11-21T12:26:42;101077.19;;;20.11;55.17
74573;BME280;73017;50.810;4.428;2023-11-21T12:29:07;101128.78;;;20.42;55.31
74573;BME280;73017;50.810;4.428;2023-11-21T12:31:34;101139.16;;;20.47;55.55
74573;BME280;73017;50.810;4.428;2023-11-21T12:34:00;101132.66;;;20.45;55.98
74573;BME280;73017;50.810;4.428;2023-11-21T12:36:26;101123.06;;;20.40;55.43
74573;BME280;73017;50.810;4.428;2023-11-21T12:38:54;101133.31;;;20.41;55.51
74573;BME280;73017;50.810;4.428;2023-11-21T12:41:19;101154.56;;;20.57;55.47
74573;BME280;73017;50.810;4.428;2023-11-21T12:43:47;101135.19;;;20.41;55.37
74573;BME280;73017;50.810;4.428;2023-11-21T12:46:13;101136.22;;;20.36;55.15
74573;BME280;73017;50.810;4.428;2023-11-21T12:48:44;101161.34;;;20.55;55.64
74573;BME280;73017;50.810;4.428;2023-11-21T12:51:12;101140.50;;;20.41;55.55
74573;BME280;73017;50.810;4.428;2023-11-21T12:53:40;101154.66;;;20.45;55.17
74573;BME280;73017;50.810;4.428;2023-11-21T12:56:15;101153.13;;;20.44;55.34
74573;BME280;73017;50.810;4.428;2023-11-21T12:58:45;101150.47;;;20.44;55.56
74573;BME280;73017;50.810;4.428;2023-11-21T13:01:13;101175.81;;;20.57;55.26
74573;BME280;73017;50.810;4.428;2023-11-21T13:03:43;101151.91;;;20.41;55.33
74573;BME280;73017;50.810;4.428;2023-11-21T13:06:10;101173.63;;;20.59;55.83